Time;durP1;ratioP1;P1;durP2;ratioP2;P2;SDS_P1;SDS_P2;PMS_P1;PMS_P2;Temp;Humidity;BMP_temperature;BMP_pressure;BME280_temperature;BME280_humidity;BME280_pressure;Samples;Min_cycle;Max_cycle;Signal;HPM_P1;HPM_P2
2023/02/17 00:02:07;;;;;;;5.80;4.10;;;12.00;88.90;;;;;;5042323;28;20064;-59
2023/02/17 00:04:33;;;;;;;7.53;4.38;;;12.00;89.00;;;;;;5042189;28;20033;-58
2023/02/17 00:06:59;;;;;;;8.60;4.40;;;12.00;89.00;;;;;;5043313;28;20036;-58
2023/02/17 00:09:25;;;;;;;6.07;3.85;;;12.00;88.90;;;;;;5040626;28;20045;-63
2023/02/17 00:11:51;;;;;;;7.47;5.60;;;12.00;88.90;;;;;;5046145;28;20029;-63
2023/02/17 00:14:17;;;;;;;5.90;4.03;;;12.00;89.00;;;;;;5069479;28;20156;-63
2023/02/17 00:16:44;;;;;;;9.68;4.78;;;12.00;89.10;;;;;;5044390;28;20057;-59
2023/02/17 00:19:23;;;;;;;5.55;3.90;;;12.00;89.10;;;;;;5048694;28;20025;-58
2023/02/17 00:21:54;;;;;;;5.50;3.17;;;12.00;89.10;;;;;;5042306;28;20513;-63
2023/02/17 00:24:21;;;;;;;7.15;3.42;;;12.00;89.00;;;;;;5047119;28;20045;-63
2023/02/17 00:26:47;;;;;;;5.90;4.20;;;12.00;89.00;;;;;;5045550;28;20104;-62
2023/02/17 00:29:13;;;;;;;8.93;5.10;;;12.00;88.90;;;;;;5043993;28;20029;-58
2023/02/17 00:31:39;;;;;;;7.50;4.38;;;12.00;88.80;;;;;;5041174;28;20056;-59
2023/02/17 00:34:04;;;;;;;6.15;3.72;;;12.00;88.80;;;;;;5049429;28;20041;-59
2023/02/17 00:36:30;;;;;;;6.78;3.83;;;12.10;88.80;;;;;;5044235;28;20392;-58
2023/02/17 00:38:56;;;;;;;6.85;3.58;;;12.00;88.80;;;;;;5048227;28;20052;-59
2023/02/17 00:41:22;;;;;;;4.85;3.33;;;12.00;88.80;;;;;;5046035;28;20801;-58
2023/02/17 00:43:48;;;;;;;7.55;3.80;;;12.10;88.70;;;;;;5048134;28;20025;-58
2023/02/17 00:46:15;;;;;;;6.78;3.78;;;12.10;88.60;;;;;;5041030;28;20435;-59
2023/02/17 00:48:40;;;;;;;7.90;3.83;;;12.10;88.60;;;;;;5046650;28;20036;-58
2023/02/17 00:51:06;;;;;;;6.55;4.07;;;12.10;88.50;;;;;;5046922;28;20480;-58
2023/02/17 00:53:32;;;;;;;5.35;3.15;;;12.10;88.40;;;;;;5051850;28;20032;-58
2023/02/17 00:55:58;;;;;;;7.38;3.90;;;12.10;88.40;;;;;;5048121;28;20120;-62
2023/02/17 00:58:24;;;;;;;6.43;3.47;;;12.10;88.30;;;;;;5043097;28;20025;-57
2023/02/17 01:00:49;;;;;;;5.70;3.95;;;12.10;88.20;;;;;;5045222;28;20033;-63
2023/02/17 01:03:17;;;;;;;6.80;4.03;;;12.10;88.20;;;;;;5051119;28;20119;-62
2023/02/17 01:05:45;;;;;;;3.72;2.45;;;12.10;88.20;;;;;;5050374;28;20051;-62
2023/02/17 01:08:11;;;;;;;5.18;3.28;;;12.10;88.20;;;;;;5055095;28;20557;-58
2023/02/17 01:10:38;;;;;;;4.93;2.58;;;12.10;88.10;;;;;;5047275;28;20041;-58
2023/02/17 01:13:05;;;;;;;8.13;3.13;;;12.10;88.10;;;;;;5053905;28;20036;-58
2023/02/17 01:15:36;;;;;;;4.93;2.95;;;12.10;88.00;;;;;;5049362;28;20033;-57
2023/02/17 01:18:01;;;;;;;5.85;3.40;;;12.10;88.10;;;;;;5041501;28;20032;-58
2023/02/17 01:20:27;;;;;;;4.40;3.25;;;12.10;88.20;;;;;;5052827;28;20430;-63
2023/02/17 01:22:53;;;;;;;5.03;2.65;;;12.10;88.10;;;;;;5048604;28;20056;-62
2023/02/17 01:25:18;;;;;;;4.90;3.50;;;12.10;88.20;;;;;;5066674;28;20078;-63
2023/02/17 01:27:45;;;;;;;5.55;3.25;;;12.10;88.20;;;;;;5048556;28;20060;-62
2023/02/17 01:30:12;;;;;;;4.38;2.78;;;12.10;88.40;;;;;;5043963;28;20073;-63
2023/02/17 01:32:38;;;;;;;5.65;2.95;;;12.10;88.30;;;;;;5042169;28;20427;-62
2023/02/17 01:35:04;;;;;;;5.38;3.58;;;12.10;88.30;;;;;;5075229;28;20029;-62
2023/02/17 01:37:32;;;;;;;5.45;2.90;;;12.10;88.30;;;;;;5043069;28;20042;-62
2023/02/17 01:39:58;;;;;;;4.10;3.40;;;12.10;88.20;;;;;;5049531;28;20089;-62
2023/02/17 01:42:24;;;;;;;6.03;3.65;;;12.20;88.20;;;;;;5044724;28;20029;-63
2023/02/17 01:45:17;;;;;;;4.47;3.15;;;12.20;88.10;;;;;;5048535;28;20064;-62
2023/02/17 01:47:51;;;;;;;4.78;3.05;;;12.20;87.90;;;;;;5041320;28;20041;-62
2023/02/17 01:50:21;;;;;;;5.95;3.78;;;12.20;87.90;;;;;;5045985;28;20029;-62
2023/02/17 01:52:47;;;;;;;3.85;3.40;;;12.20;88.10;;;;;;5046008;28;20036;-58
2023/02/17 01:55:17;;;;;;;5.00;3.35;;;12.20;88.10;;;;;;5049416;28;20095;-58
2023/02/17 01:57:44;;;;;;;6.68;3.90;;;12.20;88.00;;;;;;5036792;28;20056;-58
2023/02/17 02:00:12;;;;;;;7.13;3.75;;;12.20;88.00;;;;;;5056476;28;20036;-58
2023/02/17 02:02:40;;;;;;;5.90;3.20;;;12.20;88.00;;;;;;5037858;28;20484;-58
2023/02/17 02:05:06;;;;;;;8.02;4.38;;;12.20;88.00;;;;;;5053016;28;20031;-58
2023/02/17 02:07:37;;;;;;;7.50;4.85;;;12.10;88.00;;;;;;5048499;28;20550;-62
2023/02/17 02:10:03;;;;;;;6.00;3.85;;;12.10;88.10;;;;;;5042719;28;20116;-63
2023/02/17 02:12:33;;;;;;;6.70;3.97;;;12.10;88.10;;;;;;5043162;28;20025;-63
2023/02/17 02:15:06;;;;;;;5.43;3.63;;;12.10;88.00;;;;;;5043343;28;20060;-63
2023/02/17 02:17:46;;;;;;;7.10;4.40;;;12.10;88.00;;;;;;5038642;28;20025;-63
2023/02/17 02:20:26;;;;;;;7.55;4.32;;;12.10;88.00;;;;;;5036769;28;20037;-62
2023/02/17 02:23:01;;;;;;;7.63;5.03;;;12.10;87.90;;;;;;5057512;28;20044;-62
2023/02/17 02:26:06;;;;;;;10.13;5.22;;;12.10;87.90;;;;;;5043310;28;20037;-63
2023/02/17 02:28:53;;;;;;;6.47;4.63;;;12.10;87.80;;;;;;5040972;28;20037;-63
2023/02/17 02:31:55;;;;;;;10.68;5.72;;;12.10;87.90;;;;;;5047792;28;20472;-63
2023/02/17 02:34:31;;;;;;;8.73;5.13;;;12.10;87.80;;;;;;5060309;28;20086;-63
2023/02/17 02:37:07;;;;;;;9.02;4.90;;;12.10;87.90;;;;;;5047892;28;20055;-62
2023/02/17 02:39:41;;;;;;;10.77;6.30;;;12.10;87.80;;;;;;5043932;28;20067;-61
2023/02/17 02:42:11;;;;;;;10.13;5.43;;;12.10;87.80;;;;;;5041493;28;20040;-63
2023/02/17 02:44:37;;;;;;;7.70;4.50;;;12.10;87.80;;;;;;5047059;28;20021;-62
2023/02/17 02:47:25;;;;;;;7.88;4.78;;;12.10;87.60;;;;;;5045099;28;20087;-63
2023/02/17 02:49:50;;;;;;;10.77;4.70;;;12.10;87.60;;;;;;5047764;28;20108;-63
2023/02/17 02:52:25;;;;;;;12.18;5.75;;;12.10;87.50;;;;;;5043383;28;20449;-63
2023/02/17 02:55:10;;;;;;;10.93;5.50;;;12.20;87.30;;;;;;5054130;28;20551;-62
2023/02/17 02:57:57;;;;;;;7.72;4.75;;;12.10;87.20;;;;;;5045059;28;20376;-62
2023/02/17 03:00:40;;;;;;;10.57;6.47;;;12.10;87.10;;;;;;5041547;28;20526;-63
2023/02/17 03:03:25;;;;;;;10.23;5.85;;;12.10;86.90;;;;;;5048877;28;20242;-58
2023/02/17 03:06:16;;;;;;;7.60;4.88;;;12.10;86.80;;;;;;5048042;28;20447;-58
2023/02/17 03:08:55;;;;;;;7.40;5.15;;;12.10;86.60;;;;;;5042796;28;20056;-57
2023/02/17 03:11:33;;;;;;;9.98;6.15;;;12.10;86.60;;;;;;5045790;28;20025;-58
2023/02/17 03:14:06;;;;;;;9.32;5.97;;;12.10;86.50;;;;;;5044400;28;20531;-58
2023/02/17 03:16:33;;;;;;;6.82;4.70;;;12.10;86.30;;;;;;5043436;28;20130;-58
2023/02/17 03:18:59;;;;;;;7.82;4.82;;;12.10;86.30;;;;;;5047716;28;20041;-59
2023/02/17 03:21:32;;;;;;;12.65;6.22;;;12.10;86.30;;;;;;5048905;28;20395;-57
2023/02/17 03:23:58;;;;;;;8.85;5.28;;;12.10;86.20;;;;;;5049097;28;20029;-58
2023/02/17 03:26:23;;;;;;;9.70;5.32;;;12.10;86.00;;;;;;5039923;28;20507;-58
2023/02/17 03:28:49;;;;;;;6.47;4.78;;;12.10;86.00;;;;;;5047456;28;20573;-58
2023/02/17 03:31:15;;;;;;;7.47;4.45;;;12.00;86.00;;;;;;5048809;28;20499;-58
2023/02/17 03:33:40;;;;;;;9.13;4.30;;;12.10;86.00;;;;;;5046034;28;20056;-58
2023/02/17 03:36:06;;;;;;;6.78;4.35;;;12.00;85.90;;;;;;5078975;28;20484;-59
2023/02/17 03:38:32;;;;;;;7.57;4.85;;;12.00;85.90;;;;;;5046196;28;20059;-59
2023/02/17 03:40:57;;;;;;;9.45;5.20;;;12.00;85.90;;;;;;5042790;28;20098;-58
2023/02/17 03:43:23;;;;;;;6.78;4.03;;;12.00;85.80;;;;;;5063363;28;20032;-57
2023/02/17 03:45:49;;;;;;;5.75;3.85;;;12.00;85.70;;;;;;5038576;28;20022;-59
2023/02/17 03:48:14;;;;;;;6.50;3.20;;;12.10;85.70;;;;;;5040262;28;20033;-58
2023/02/17 03:50:40;;;;;;;7.55;4.20;;;12.10;85.60;;;;;;5048985;28;20063;-59
2023/02/17 03:53:06;;;;;;;7.57;3.75;;;12.10;85.50;;;;;;5041794;28;20439;-59
2023/02/17 03:55:31;;;;;;;7.07;4.05;;;12.10;85.40;;;;;;5041904;28;20044;-59
2023/02/17 03:57:57;;;;;;;8.48;4.43;;;12.00;85.40;;;;;;5045716;28;20437;-59
2023/02/17 04:00:23;;;;;;;6.78;3.78;;;12.10;85.50;;;;;;5047520;28;20017;-62
2023/02/17 04:02:49;;;;;;;7.45;3.95;;;12.10;85.30;;;;;;5051615;28;20512;-63
2023/02/17 04:05:14;;;;;;;6.82;3.72;;;12.10;85.40;;;;;;5069518;28;20063;-63
2023/02/17 04:07:40;;;;;;;6.28;3.78;;;12.00;85.20;;;;;;5042614;28;20029;-63
2023/02/17 04:10:06;;;;;;;6.50;3.90;;;12.00;85.30;;;;;;5045944;28;20049;-62
2023/02/17 04:12:32;;;;;;;5.75;3.60;;;12.10;85.30;;;;;;5041561;28;20465;-63
2023/02/17 04:14:58;;;;;;;7.35;3.55;;;12.00;85.30;;;;;;5041738;28;20021;-63
2023/02/17 04:17:23;;;;;;;6.65;4.38;;;12.00;85.40;;;;;;5046645;28;20064;-63
2023/02/17 04:19:49;;;;;;;8.40;3.53;;;12.10;85.40;;;;;;5046826;28;20025;-63
2023/02/17 04:22:15;;;;;;;6.15;3.58;;;12.10;85.40;;;;;;5060711;28;20044;-58
2023/02/17 04:24:40;;;;;;;4.90;3.55;;;12.10;85.40;;;;;;5048244;28;20477;-58
2023/02/17 04:27:06;;;;;;;4.72;2.58;;;12.00;85.30;;;;;;5051278;28;20045;-59
2023/02/17 04:29:32;;;;;;;5.10;3.10;;;12.10;85.30;;;;;;5053757;28;20021;-59
2023/02/17 04:31:58;;;;;;;4.93;3.17;;;12.10;85.30;;;;;;5043159;28;20493;-58
2023/02/17 04:34:24;;;;;;;6.82;3.47;;;12.10;85.20;;;;;;5054048;28;20081;-58
2023/02/17 04:36:50;;;;;;;6.18;3.30;;;12.10;85.20;;;;;;5050699;28;20037;-58
2023/02/17 04:39:15;;;;;;;5.38;3.15;;;12.10;85.30;;;;;;5053912;28;20118;-58
2023/02/17 04:41:41;;;;;;;5.43;3.47;;;12.10;85.30;;;;;;5050833;28;20032;-59
2023/02/17 04:44:07;;;;;;;6.68;3.72;;;12.10;85.30;;;;;;5045436;28;20418;-59
2023/02/17 04:46:35;;;;;;;5.68;3.45;;;12.10;85.40;;;;;;5054629;28;20036;-59
2023/02/17 04:49:01;;;;;;;7.00;3.15;;;12.10;85.40;;;;;;5044309;28;20039;-58
2023/02/17 04:51:27;;;;;;;5.53;3.78;;;12.10;85.30;;;;;;5050447;28;20033;-58
2023/02/17 04:53:54;;;;;;;7.38;4.78;;;12.10;85.30;;;;;;5049209;28;20182;-58
2023/02/17 04:56:19;;;;;;;9.27;4.28;;;12.10;85.30;;;;;;5048612;28;20774;-58
2023/02/17 04:58:45;;;;;;;8.48;4.85;;;12.10;85.20;;;;;;5048239;28;20021;-58
2023/02/17 05:01:10;;;;;;;8.48;3.85;;;12.10;85.20;;;;;;5051648;28;20025;-58
2023/02/17 05:03:36;;;;;;;9.38;5.68;;;12.10;85.30;;;;;;5044973;28;20862;-58
2023/02/17 05:06:02;;;;;;;9.43;5.60;;;12.10;85.30;;;;;;5051873;28;20111;-59
2023/02/17 05:08:27;;;;;;;8.85;4.63;;;12.10;85.30;;;;;;5052501;28;20143;-64
2023/02/17 05:10:53;;;;;;;8.50;4.15;;;12.10;85.30;;;;;;5065117;28;20021;-63
2023/02/17 05:13:19;;;;;;;11.63;5.07;;;12.10;85.50;;;;;;5053066;28;20103;-59
2023/02/17 05:15:45;;;;;;;13.48;5.50;;;12.00;85.80;;;;;;5050634;28;20029;-65
2023/02/17 05:18:12;;;;;;;9.93;5.22;;;12.00;86.10;;;;;;5048732;28;20523;-65
2023/02/17 05:20:38;;;;;;;13.13;5.93;;;12.00;86.30;;;;;;5052247;28;20063;-63
2023/02/17 05:23:04;;;;;;;7.70;4.93;;;12.00;86.50;;;;;;5048290;28;20064;-63
2023/02/17 05:25:30;;;;;;;11.27;5.15;;;12.00;86.80;;;;;;5046188;28;20060;-60
2023/02/17 05:27:55;;;;;;;9.60;4.90;;;12.00;86.80;;;;;;5050266;28;20094;-60
2023/02/17 05:30:21;;;;;;;11.55;5.55;;;12.00;86.90;;;;;;5052110;28;20029;-63
2023/02/17 05:32:47;;;;;;;18.30;6.57;;;11.90;87.40;;;;;;5042213;28;20090;-61
2023/02/17 05:35:12;;;;;;;10.65;6.10;;;11.80;87.70;;;;;;5064957;28;20025;-64
2023/02/17 05:37:38;;;;;;;13.52;6.72;;;11.80;88.30;;;;;;5044480;28;20056;-59
2023/02/17 05:40:04;;;;;;;8.57;5.20;;;11.70;88.50;;;;;;5039095;28;20057;-59
2023/02/17 05:42:30;;;;;;;8.20;5.60;;;11.70;88.50;;;;;;5047467;28;20481;-63
2023/02/17 05:44:56;;;;;;;12.25;7.10;;;11.70;88.50;;;;;;5046642;28;20031;-59
2023/02/17 05:47:22;;;;;;;11.57;5.68;;;11.70;88.60;;;;;;5038549;28;20148;-59
2023/02/17 05:49:48;;;;;;;8.50;5.82;;;11.80;88.60;;;;;;5045744;28;20033;-63
2023/02/17 05:52:13;;;;;;;9.27;4.97;;;11.80;88.50;;;;;;5046211;28;20038;-63
2023/02/17 05:54:39;;;;;;;12.40;7.03;;;11.80;88.50;;;;;;5049267;28;20052;-63
2023/02/17 05:57:05;;;;;;;10.18;5.55;;;11.80;88.50;;;;;;5048533;28;20423;-59
2023/02/17 05:59:30;;;;;;;9.10;5.85;;;11.80;88.60;;;;;;5043362;28;20059;-59
2023/02/17 06:01:56;;;;;;;12.02;6.32;;;11.80;88.60;;;;;;5048561;28;20491;-59
2023/02/17 06:04:22;;;;;;;11.43;6.20;;;11.80;88.60;;;;;;5049980;28;20075;-63
2023/02/17 06:06:47;;;;;;;10.52;6.10;;;11.80;88.70;;;;;;5046742;28;20033;-64
2023/02/17 06:09:13;;;;;;;11.93;5.88;;;11.80;88.70;;;;;;5048905;28;20098;-63
2023/02/17 06:11:39;;;;;;;7.93;4.70;;;11.80;88.60;;;;;;5040550;28;20028;-64
2023/02/17 06:14:04;;;;;;;11.20;5.93;;;11.80;88.70;;;;;;5041075;28;20408;-59
2023/02/17 06:16:30;;;;;;;7.60;5.40;;;11.90;88.70;;;;;;5040832;28;20048;-59
2023/02/17 06:18:58;;;;;;;8.45;5.47;;;11.90;88.60;;;;;;5043012;28;20480;-62
2023/02/17 06:21:24;;;;;;;6.50;4.93;;;11.90;88.50;;;;;;5049212;28;20037;-63
2023/02/17 06:23:50;;;;;;;10.43;5.22;;;11.90;88.40;;;;;;5054189;28;20395;-63
2023/02/17 06:26:17;;;;;;;7.57;4.35;;;11.90;88.40;;;;;;5045741;28;20540;-63
2023/02/17 06:28:43;;;;;;;8.38;5.18;;;11.90;88.40;;;;;;5042618;28;20033;-63
2023/02/17 06:31:08;;;;;;;8.02;4.60;;;11.90;88.50;;;;;;5034041;28;20041;-63
2023/02/17 06:33:34;;;;;;;10.27;4.88;;;11.90;88.50;;;;;;5035759;28;20033;-64
2023/02/17 06:36:00;;;;;;;8.55;5.15;;;11.90;88.60;;;;;;5050124;28;20037;-63
2023/02/17 06:38:25;;;;;;;7.25;5.00;;;11.90;88.80;;;;;;5041319;28;20056;-63
2023/02/17 06:40:52;;;;;;;12.23;5.13;;;11.90;88.80;;;;;;5036605;28;20249;-63
2023/02/17 06:43:18;;;;;;;10.75;5.65;;;11.90;89.30;;;;;;5040167;28;20063;-64
2023/02/17 06:45:43;;;;;;;5.50;3.80;;;11.90;88.70;;;;;;5041603;28;20075;-63
2023/02/17 06:48:09;;;;;;;8.20;5.45;;;12.00;88.60;;;;;;5045209;28;20036;-65
2023/02/17 06:50:35;;;;;;;11.02;5.28;;;12.00;88.60;;;;;;5049666;28;20510;-64
2023/02/17 06:53:01;;;;;;;7.90;4.38;;;12.00;88.90;;;;;;5043341;28;20028;-64
2023/02/17 06:55:26;;;;;;;8.60;5.15;;;12.00;88.70;;;;;;5044747;28;20041;-63
2023/02/17 06:57:52;;;;;;;8.98;5.22;;;12.00;88.60;;;;;;5043262;28;20087;-61
2023/02/17 07:00:18;;;;;;;10.18;5.18;;;12.00;88.70;;;;;;5045426;28;20064;-61
2023/02/17 07:02:44;;;;;;;8.48;4.65;;;12.00;88.80;;;;;;5039358;28;20083;-61
2023/02/17 07:05:10;;;;;;;8.73;4.70;;;12.00;88.90;;;;;;5044591;28;20060;-61
2023/02/17 07:07:35;;;;;;;10.18;5.43;;;12.00;89.00;;;;;;5048765;28;20029;-61
2023/02/17 07:10:02;;;;;;;7.43;4.70;;;12.00;89.00;;;;;;5047522;28;20394;-62
2023/02/17 07:12:28;;;;;;;9.27;4.47;;;12.00;89.00;;;;;;5040722;28;20028;-61
2023/02/17 07:14:54;;;;;;;7.15;4.63;;;12.00;88.90;;;;;;5042308;28;20538;-62
2023/02/17 07:17:19;;;;;;;9.75;4.97;;;12.10;88.90;;;;;;5047242;28;20120;-62
2023/02/17 07:19:45;;;;;;;9.13;5.22;;;12.10;88.80;;;;;;5048840;28;20017;-63
2023/02/17 07:22:11;;;;;;;7.85;4.10;;;12.10;88.70;;;;;;5046246;28;20042;-61
2023/02/17 07:24:36;;;;;;;11.68;5.53;;;12.10;88.70;;;;;;5045885;28;20490;-62
2023/02/17 07:27:04;;;;;;;10.43;5.03;;;12.10;88.70;;;;;;5044011;28;20469;-63
2023/02/17 07:29:30;;;;;;;8.73;5.18;;;12.10;88.70;;;;;;5041352;28;20029;-61
2023/02/17 07:31:55;;;;;;;7.75;4.63;;;12.10;88.90;;;;;;5039998;28;20590;-62
2023/02/17 07:34:21;;;;;;;6.63;4.68;;;12.10;88.90;;;;;;5043430;28;20498;-61
2023/02/17 07:36:47;;;;;;;10.02;5.63;;;12.10;88.90;;;;;;5042080;28;20029;-60
2023/02/17 07:39:12;;;;;;;10.30;5.78;;;12.10;88.90;;;;;;5043731;28;20496;-61
2023/02/17 07:41:38;;;;;;;6.55;4.70;;;12.10;88.80;;;;;;5037952;28;20108;-62
2023/02/17 07:44:04;;;;;;;8.23;4.45;;;12.10;88.80;;;;;;5043165;28;20037;-61
2023/02/17 07:46:30;;;;;;;5.65;4.30;;;12.20;88.80;;;;;;5047078;28;20025;-62
2023/02/17 07:48:57;;;;;;;7.72;4.35;;;12.20;88.60;;;;;;5084302;28;20569;-60
2023/02/17 07:51:24;;;;;;;6.72;4.95;;;12.20;88.50;;;;;;5036338;28;20036;-62
2023/02/17 07:53:50;;;;;;;9.20;4.90;;;12.20;88.50;;;;;;5040699;28;20043;-62
2023/02/17 07:56:20;;;;;;;9.52;5.15;;;12.20;88.50;;;;;;5047208;28;20052;-62
2023/02/17 07:58:46;;;;;;;8.30;4.60;;;12.20;88.40;;;;;;5042110;28;20021;-63
2023/02/17 08:01:18;;;;;;;7.95;4.82;;;12.30;88.20;;;;;;5046644;28;20033;-61
2023/02/17 08:03:45;;;;;;;8.52;5.35;;;12.30;88.20;;;;;;5046737;28;20014;-60
2023/02/17 08:06:14;;;;;;;7.40;4.43;;;12.30;88.10;;;;;;5037626;28;20429;-60
2023/02/17 08:14:09;;;;;;;10.30;5.40;;;12.40;87.80;;;;;;5044346;28;20063;-58
2023/02/17 08:16:35;;;;;;;9.90;5.57;;;12.40;87.80;;;;;;5037534;28;20540;-60
2023/02/17 08:19:00;;;;;;;8.18;4.95;;;12.50;87.70;;;;;;5039118;28;20355;-60
2023/02/17 08:21:27;;;;;;;9.07;4.63;;;12.40;87.40;;;;;;5046504;28;20025;-63
2023/02/17 08:23:53;;;;;;;20.45;4.50;;;12.40;87.40;;;;;;5045480;28;20505;-60
2023/02/17 08:26:20;;;;;;;6.82;3.83;;;12.50;87.40;;;;;;5039263;28;20030;-61
2023/02/17 08:28:47;;;;;;;6.03;3.97;;;12.50;87.30;;;;;;5042652;28;20376;-61
2023/02/17 08:31:22;;;;;;;6.50;4.50;;;12.50;87.30;;;;;;5044605;28;20119;-59
2023/02/17 08:33:48;;;;;;;4.93;3.33;;;12.50;86.90;;;;;;5049272;28;20029;-59
2023/02/17 08:36:14;;;;;;;7.53;4.13;;;12.50;87.10;;;;;;5031172;28;20071;-65
2023/02/17 08:38:40;;;;;;;7.68;4.30;;;12.50;87.00;;;;;;5040408;28;20041;-59
2023/02/17 08:41:12;;;;;;;6.15;3.83;;;12.60;87.00;;;;;;5044630;28;20021;-65
2023/02/17 08:43:39;;;;;;;6.43;3.90;;;12.60;87.00;;;;;;5033120;28;20025;-64
2023/02/17 08:46:07;;;;;;;7.63;4.15;;;12.60;86.90;;;;;;5042461;28;20033;-63
2023/02/17 08:48:33;;;;;;;5.85;3.85;;;12.60;86.70;;;;;;5043788;28;20109;-63
2023/02/17 08:50:59;;;;;;;6.35;3.63;;;12.70;86.70;;;;;;5039724;28;21231;-58
2023/02/17 08:53:24;;;;;;;10.93;3.65;;;12.70;86.50;;;;;;5041128;28;20061;-58
2023/02/17 08:55:50;;;;;;;5.10;3.38;;;12.70;86.50;;;;;;5038524;28;20060;-58
2023/02/17 08:58:16;;;;;;;6.25;3.72;;;12.70;86.30;;;;;;5043965;28;20068;-58
2023/02/17 09:00:42;;;;;;;6.45;3.22;;;12.80;86.30;;;;;;5046749;28;20195;-64
2023/02/17 09:03:08;;;;;;;4.45;2.72;;;12.70;86.10;;;;;;5033034;28;20451;-64
2023/02/17 09:05:35;;;;;;;5.03;2.78;;;12.80;86.00;;;;;;5048387;28;20031;-58
2023/02/17 09:08:01;;;;;;;6.40;3.92;;;12.80;85.90;;;;;;5045503;28;20041;-58
2023/02/17 09:10:26;;;;;;;9.60;2.85;;;12.80;85.90;;;;;;5039203;28;20040;-58
2023/02/17 09:12:52;;;;;;;4.40;2.90;;;12.90;85.70;;;;;;5048453;28;20745;-58
2023/02/17 09:15:18;;;;;;;5.90;3.05;;;12.90;85.60;;;;;;5043274;28;20025;-58
2023/02/17 09:17:44;;;;;;;4.60;2.33;;;12.90;85.60;;;;;;5045599;28;20056;-58
2023/02/17 09:20:10;;;;;;;4.47;2.70;;;12.90;85.50;;;;;;5045813;28;20068;-58
2023/02/17 09:22:36;;;;;;;8.73;2.72;;;12.90;85.30;;;;;;5044162;28;20021;-59
2023/02/17 09:25:03;;;;;;;4.97;2.85;;;12.90;85.20;;;;;;5038411;28;20542;-58
2023/02/17 09:27:30;;;;;;;6.00;3.20;;;12.90;85.20;;;;;;5041943;28;20102;-58
2023/02/17 09:29:56;;;;;;;7.20;3.25;;;12.90;85.10;;;;;;5049472;28;20369;-58
2023/02/17 09:32:22;;;;;;;3.78;2.40;;;13.00;85.20;;;;;;5042680;28;20037;-58
2023/02/17 09:34:49;;;;;;;4.05;2.33;;;13.00;85.10;;;;;;5050630;28;20035;-57
2023/02/17 09:37:16;;;;;;;3.47;2.15;;;13.00;85.20;;;;;;5048753;28;20048;-57
2023/02/17 09:39:42;;;;;;;4.80;2.67;;;13.00;85.00;;;;;;5044810;28;20178;-58
2023/02/17 09:42:20;;;;;;;4.03;2.35;;;13.00;85.00;;;;;;5048118;28;20123;-58
2023/02/17 09:44:51;;;;;;;4.80;1.95;;;13.00;85.00;;;;;;5044921;28;20095;-58
2023/02/17 09:47:19;;;;;;;3.22;2.10;;;13.00;84.90;;;;;;5047152;28;20040;-58
2023/02/17 09:49:55;;;;;;;3.97;2.15;;;13.00;84.80;;;;;;5046134;28;20036;-58
2023/02/17 09:52:42;;;;;;;2.40;1.73;;;13.10;84.70;;;;;;5041776;28;20033;-64
2023/02/17 09:55:14;;;;;;;3.00;1.90;;;13.10;84.70;;;;;;5041563;28;20104;-64
2023/02/17 09:57:54;;;;;;;2.58;2.10;;;13.10;84.50;;;;;;5049674;28;20021;-64
2023/02/17 10:00:25;;;;;;;3.75;1.83;;;13.10;84.30;;;;;;5048787;28;20408;-58
2023/02/17 10:02:58;;;;;;;3.22;1.85;;;13.10;84.30;;;;;;5041204;28;20076;-64
2023/02/17 10:05:28;;;;;;;3.88;1.92;;;13.10;84.10;;;;;;5035444;28;20025;-64
2023/02/17 10:08:01;;;;;;;4.78;1.92;;;13.10;84.00;;;;;;5048475;28;20021;-65
2023/02/17 10:10:34;;;;;;;5.85;2.13;;;13.10;83.80;;;;;;5046070;28;20029;-57
2023/02/17 10:13:02;;;;;;;6.25;2.42;;;13.10;83.70;;;;;;5044135;28;20020;-57
2023/02/17 10:15:33;;;;;;;5.18;2.15;;;13.10;83.60;;;;;;5028508;28;20021;-59
2023/02/17 10:18:30;;;;;;;3.08;1.90;;;13.10;83.50;;;;;;5046270;28;20469;-58
2023/02/17 10:21:06;;;;;;;2.45;1.63;;;13.20;83.40;;;;;;5045618;28;20452;-58
2023/02/17 10:23:32;;;;;;;2.58;1.90;;;13.20;83.40;;;;;;5036902;28;20148;-58
2023/02/17 10:26:22;;;;;;;4.95;2.35;;;13.20;83.30;;;;;;5043477;28;20523;-58
2023/02/17 10:28:58;;;;;;;3.70;2.00;;;13.20;82.90;;;;;;5044273;28;20024;-64
2023/02/17 10:31:45;;;;;;;2.88;1.60;;;13.20;83.00;;;;;;5047090;28;20040;-64
2023/02/17 10:34:34;;;;;;;2.58;1.85;;;13.20;83.00;;;;;;5052473;28;20037;-64
2023/02/17 10:37:29;;;;;;;3.17;1.58;;;13.20;83.00;;;;;;5045498;28;20033;-64
2023/02/17 10:39:57;;;;;;;2.97;1.50;;;13.20;82.90;;;;;;5048990;28;20444;-57
2023/02/17 10:42:34;;;;;;;13.00;1.80;;;13.20;82.90;;;;;;5043275;28;20026;-58
2023/02/17 10:45:11;;;;;;;2.33;1.75;;;13.20;83.00;;;;;;5046645;28;20132;-58
2023/02/17 10:47:38;;;;;;;4.50;2.28;;;13.20;83.10;;;;;;5041363;28;20020;-58
2023/02/17 10:50:13;;;;;;;1.98;1.38;;;13.20;83.20;;;;;;5070675;28;20296;-58
2023/02/17 10:52:40;;;;;;;2.38;1.65;;;13.20;83.20;;;;;;5051142;28;20066;-58
2023/02/17 10:55:21;;;;;;;2.20;1.75;;;13.20;83.00;;;;;;5050116;28;20403;-58
2023/02/17 10:57:51;;;;;;;2.88;1.98;;;13.20;83.20;;;;;;5051633;28;20094;-58
2023/02/17 11:00:17;;;;;;;2.10;1.70;;;13.20;83.20;;;;;;5046052;28;20503;-58
2023/02/17 11:02:45;;;;;;;2.70;1.80;;;13.10;83.20;;;;;;5044168;28;20052;-58
2023/02/17 11:05:32;;;;;;;2.40;1.73;;;13.10;83.10;;;;;;5044157;28;20033;-58
2023/02/17 11:08:20;;;;;;;3.70;1.85;;;13.20;83.00;;;;;;5045248;28;20064;-57
2023/02/17 11:10:57;;;;;;;2.58;1.80;;;13.20;83.00;;;;;;5041562;28;20024;-58
2023/02/17 11:13:37;;;;;;;2.63;2.00;;;13.10;83.00;;;;;;5035063;28;20426;-58
2023/02/17 11:16:04;;;;;;;2.67;1.73;;;13.20;83.00;;;;;;5038594;28;20025;-58
2023/02/17 11:18:48;;;;;;;3.75;2.42;;;13.20;82.90;;;;;;5040792;28;20052;-58
2023/02/17 11:21:13;;;;;;;3.50;2.53;;;13.20;82.80;;;;;;5047762;28;20021;-60
2023/02/17 11:23:54;;;;;;;4.28;2.17;;;13.20;82.80;;;;;;5045954;28;20064;-57
2023/02/17 11:26:25;;;;;;;3.75;2.42;;;13.20;82.70;;;;;;5047005;28;20071;-58
2023/02/17 11:28:51;;;;;;;4.07;2.35;;;13.30;82.60;;;;;;5043058;28;20091;-58
2023/02/17 11:31:28;;;;;;;5.32;2.35;;;13.30;82.70;;;;;;5042846;28;20028;-59
2023/02/17 11:33:55;;;;;;;3.97;2.10;;;13.30;82.70;;;;;;5041119;28;20587;-59
2023/02/17 11:36:29;;;;;;;4.53;2.22;;;13.30;82.60;;;;;;5040361;28;20025;-60
2023/02/17 11:38:56;;;;;;;2.53;1.50;;;13.30;82.30;;;;;;5040933;28;20071;-58
2023/02/17 11:41:22;;;;;;;6.78;2.35;;;13.30;82.50;;;;;;5035562;28;20017;-58
2023/02/17 11:43:58;;;;;;;4.20;2.25;;;13.30;82.50;;;;;;5042426;28;20025;-59
2023/02/17 11:46:33;;;;;;;4.22;2.40;;;13.30;82.30;;;;;;5037393;28;20036;-59
2023/02/17 11:49:37;;;;;;;3.03;2.25;;;13.30;82.50;;;;;;5043927;28;20033;-57
2023/02/17 11:52:20;;;;;;;4.22;2.53;;;13.30;82.60;;;;;;5044693;28;20112;-59
2023/02/17 11:55:17;;;;;;;3.38;1.88;;;13.20;82.70;;;;;;5040493;28;20032;-59
2023/02/17 11:58:27;;;;;;;4.72;2.17;;;13.20;82.90;;;;;;5042463;28;20036;-60
2023/02/17 12:01:05;;;;;;;4.20;2.60;;;13.20;82.90;;;;;;5042680;28;20043;-65
2023/02/17 12:04:20;;;;;;;5.00;2.20;;;13.20;83.20;;;;;;5042622;28;20025;-65
2023/02/17 12:07:10;;;;;;;4.82;1.90;;;13.20;83.20;;;;;;5042577;28;20395;-64
2023/02/17 12:10:13;;;;;;;4.70;2.50;;;13.20;83.20;;;;;;5045914;28;20060;-64
2023/02/17 12:13:01;;;;;;;;;;;13.20;83.20;;;;;;5043576;28;20071;-64
2023/02/17 12:15:48;;;;;;;5.22;2.58;;;13.20;83.30;;;;;;5039596;28;19913;-64
2023/02/17 12:18:33;;;;;;;2.40;1.80;;;13.20;83.30;;;;;;5043749;28;20078;-59
2023/02/17 12:21:49;;;;;;;4.22;2.03;;;13.20;83.30;;;;;;5040303;28;20032;-64
2023/02/17 12:24:33;;;;;;;10.38;2.47;;;13.30;83.20;;;;;;5040882;28;20087;-64
2023/02/17 12:26:59;;;;;;;4.15;2.95;;;13.30;83.20;;;;;;5046073;28;20029;-59
2023/02/17 12:29:30;;;;;;;3.53;2.47;;;13.30;83.20;;;;;;5046045;28;20029;-59
2023/02/17 12:32:11;;;;;;;5.53;2.22;;;13.30;83.10;;;;;;5047571;28;20036;-58
2023/02/17 12:35:00;;;;;;;4.35;2.60;;;13.30;83.20;;;;;;5041278;28;20103;-64
2023/02/17 12:37:32;;;;;;;2.78;2.20;;;13.40;83.10;;;;;;5069699;28;20025;-64
2023/02/17 12:40:14;;;;;;;4.78;2.80;;;13.40;83.20;;;;;;5042031;28;20049;-63
2023/02/17 12:42:46;;;;;;;4.20;2.85;;;13.30;83.10;;;;;;5046414;28;20017;-63
2023/02/17 12:45:21;;;;;;;7.25;2.35;;;13.30;83.10;;;;;;5051464;28;20031;-63
2023/02/17 12:47:58;;;;;;;4.13;2.10;;;13.30;82.80;;;;;;5067861;28;20495;-63
2023/02/17 12:50:36;;;;;;;4.95;2.97;;;13.30;82.80;;;;;;5061884;28;20052;-63
2023/02/17 12:53:10;;;;;;;7.95;2.20;;;13.30;82.80;;;;;;5052608;28;20040;-63
2023/02/17 12:55:47;;;;;;;5.10;3.03;;;13.30;82.70;;;;;;5043023;28;20029;-63
2023/02/17 12:58:20;;;;;;;6.15;2.30;;;13.20;82.80;;;;;;5045631;28;20025;-63
2023/02/17 13:00:54;;;;;;;7.82;2.47;;;13.30;82.90;;;;;;5049643;28;20029;-63
2023/02/17 13:03:19;;;;;;;4.82;2.30;;;13.30;82.90;;;;;;5076732;28;20347;-63
2023/02/17 13:05:54;;;;;;;6.15;2.78;;;13.20;82.80;;;;;;5032965;28;20040;-58
2023/02/17 13:08:32;;;;;;;4.45;2.67;;;13.20;82.60;;;;;;5045452;28;20033;-63